createdAt,value
2022-10-10T00:04:24.587Z,5.2
2022-10-10T00:09:25.241Z,3.8
2022-10-10T00:14:26.324Z,3.8
2022-10-10T00:19:32.065Z,4.7
2022-10-10T00:24:32.784Z,5.1
2022-10-10T00:29:33.488Z,5.7
2022-10-10T00:34:33.860Z,5.6
2022-10-10T00:39:34.512Z,3.8
2022-10-10T00:44:34.842Z,6
2022-10-10T00:49:35.210Z,3.9
2022-10-10T00:54:35.920Z,5.3
2022-10-10T00:59:36.285Z,5.5
2022-10-10T01:04:37.385Z,4.6
2022-10-10T01:09:45.049Z,6.4
2022-10-10T01:14:45.482Z,5.3
2022-10-10T01:19:45.909Z,5.7
2022-10-10T01:24:46.605Z,4.1
2022-10-10T01:29:47.220Z,6.9
2022-10-10T01:34:47.557Z,5.7
2022-10-10T01:39:48.120Z,8.9
2022-10-10T01:44:48.604Z,6.2
2022-10-10T01:49:49.055Z,7.5
2022-10-10T01:54:49.646Z,6.4
2022-10-10T01:59:49.994Z,8.1
2022-10-10T02:04:50.478Z,7.1
2022-10-10T02:09:51.189Z,6.1
2022-10-10T02:14:51.552Z,4.6
2022-10-10T02:19:51.987Z,7.7
2022-10-10T02:24:52.650Z,7.6
2022-10-10T02:29:53.315Z,7.7
2022-10-10T02:34:53.728Z,7.5
2022-10-10T02:39:54.391Z,6.7
2022-10-10T02:44:54.781Z,7.8
2022-10-10T02:49:55.193Z,5.6
2022-10-10T02:54:55.957Z,8.3
2022-10-10T02:59:56.434Z,7.3
2022-10-10T03:04:56.922Z,9.5
2022-10-10T03:09:57.590Z,10.7
2022-10-10T03:14:58.065Z,9
2022-10-10T03:19:58.478Z,7.7
2022-10-10T03:24:59.226Z,8.2
2022-10-10T03:29:59.894Z,10
2022-10-10T03:35:00.947Z,7.6
2022-10-10T03:40:01.623Z,8.5
2022-10-10T03:45:02.155Z,8.6
2022-10-10T03:50:02.571Z,7.9
2022-10-10T03:55:03.255Z,11.2
2022-10-10T04:00:03.616Z,10.7
2022-10-10T04:05:04.073Z,10.6
2022-10-10T04:10:04.482Z,9.4
2022-10-10T04:15:04.930Z,9.6
2022-10-10T04:20:05.361Z,9.9
2022-10-10T04:25:06.054Z,11.9
2022-10-10T04:30:06.610Z,8.9
2022-10-10T04:35:07.003Z,9.6
2022-10-10T04:40:07.589Z,10.8
2022-10-10T04:45:08.029Z,9.7
2022-10-10T04:50:08.481Z,16
2022-10-10T04:55:09.276Z,11.3
2022-10-10T05:00:09.632Z,15.6
2022-10-10T05:05:10.084Z,25.5
2022-10-10T05:10:10.615Z,23.2
2022-10-10T05:15:11.014Z,18.6
2022-10-10T05:20:11.504Z,16.9
2022-10-10T05:25:12.213Z,38.1
2022-10-10T05:30:12.935Z,13.8
2022-10-10T05:35:13.294Z,12.2
2022-10-10T05:40:14.146Z,13.3
2022-10-10T05:45:14.434Z,16.4
2022-10-10T05:50:14.810Z,12.6
2022-10-10T05:55:15.394Z,12.1
2022-10-10T06:00:15.759Z,13.9
2022-10-10T06:05:16.139Z,42
2022-10-10T06:10:16.630Z,52.7
2022-10-10T06:15:17.063Z,17.3
2022-10-10T06:20:17.368Z,12.2
2022-10-10T06:25:35.718Z,9.5
2022-10-10T06:30:21.284Z,8
2022-10-10T06:35:21.632Z,7.4
2022-10-10T06:40:22.047Z,9.8
2022-10-10T06:45:22.383Z,9.5
2022-10-10T06:50:22.740Z,5.2
2022-10-10T06:55:23.335Z,14.2
2022-10-10T07:00:23.677Z,5.4
2022-10-10T07:05:24.054Z,7.7
2022-10-10T07:10:24.673Z,5.9
2022-10-10T07:15:25.330Z,6.1
2022-10-10T07:20:25.685Z,5.3
2022-10-10T07:25:26.201Z,6.2
2022-10-10T07:30:26.634Z,3.4
2022-10-10T07:35:27.264Z,27.4
2022-10-10T07:40:27.777Z,5.4
2022-10-10T07:45:28.189Z,5.5
2022-10-10T07:50:28.713Z,4.1
2022-10-10T07:55:29.220Z,4.6
2022-10-10T08:00:29.511Z,5.7
2022-10-10T08:05:30.322Z,4.5
2022-10-10T08:10:30.765Z,3.7
2022-10-10T08:15:33.063Z,6
2022-10-10T08:20:34.527Z,7.6
2022-10-10T08:25:35.160Z,2.9
2022-10-10T08:30:35.563Z,4.4
2022-10-10T08:35:36.175Z,5
2022-10-10T08:40:36.695Z,9.4
2022-10-10T08:45:37.565Z,5.2
2022-10-10T08:50:37.920Z,6.8
2022-10-10T08:55:39.531Z,6.7
2022-10-10T09:00:39.938Z,8.5
2022-10-10T09:05:40.385Z,8.7
2022-10-10T09:10:41.688Z,4.7
2022-10-10T09:15:42.047Z,4.4
2022-10-10T09:20:42.434Z,5.8
2022-10-10T09:25:42.925Z,9.6
2022-10-10T09:30:43.274Z,4.2
2022-10-10T09:35:43.871Z,9
2022-10-10T09:40:44.518Z,4.7
2022-10-10T09:45:44.936Z,3.7
2022-10-10T09:50:45.309Z,3.9
2022-10-10T09:55:45.897Z,7.7
2022-10-10T10:00:46.210Z,7.3
2022-10-10T10:05:46.662Z,3.8
2022-10-10T10:10:47.323Z,4.4
2022-10-10T10:15:47.721Z,5.3
2022-10-10T10:20:48.092Z,3.9
2022-10-10T10:25:48.743Z,4.4
2022-10-10T10:30:49.085Z,7.1
2022-10-10T10:35:49.673Z,4.4
2022-10-10T10:40:50.262Z,5
2022-10-10T10:45:50.692Z,7.3
2022-10-10T10:50:51.045Z,4.9
2022-10-10T10:55:52.036Z,7
2022-10-10T11:01:22.722Z,4.7
2022-10-10T11:05:54.762Z,7.1
2022-10-10T11:10:55.684Z,7.7
2022-10-10T11:16:20.270Z,5.8
2022-10-10T11:20:57.550Z,4.5
2022-10-10T11:25:58.845Z,6.3
2022-10-10T11:30:59.465Z,7
2022-10-10T11:36:00.979Z,9
2022-10-10T11:41:03.642Z,5.7
2022-10-10T11:46:04.058Z,5.7
2022-10-10T11:51:05.001Z,7.7
2022-10-10T11:56:05.616Z,7.5
2022-10-10T12:01:05.979Z,8.5
2022-10-10T12:06:06.336Z,5.9
2022-10-10T12:11:06.758Z,6.6
2022-10-10T12:16:07.142Z,3.7
2022-10-10T12:21:07.796Z,7.3
2022-10-10T12:26:08.220Z,5.3
2022-10-10T12:31:08.680Z,8.9
2022-10-10T12:36:09.305Z,4.4
2022-10-10T12:41:09.922Z,6.2
2022-10-10T12:46:10.307Z,9
2022-10-10T12:51:10.671Z,8.1
2022-10-10T12:56:11.180Z,8.8
2022-10-10T13:01:11.628Z,7.1
2022-10-10T13:06:12.194Z,10.1
2022-10-10T13:11:12.736Z,11.6
2022-10-10T13:16:13.076Z,9.4
2022-10-10T13:21:13.448Z,9.8
2022-10-10T13:26:13.901Z,7.4
2022-10-10T13:31:14.434Z,8.7
2022-10-10T13:36:14.892Z,8.2
2022-10-10T13:41:15.487Z,8.5
2022-10-10T13:46:15.908Z,9.3
2022-10-10T13:51:16.482Z,8.4
2022-10-10T13:56:17.235Z,10.6
2022-10-10T14:01:17.637Z,9.7
2022-10-10T14:06:18.254Z,7
2022-10-10T14:11:19.152Z,8.3
2022-10-10T14:16:20.054Z,8.5
2022-10-10T14:21:20.949Z,8.5
2022-10-10T14:26:21.567Z,13.2
2022-10-10T14:31:21.913Z,10.1
2022-10-10T14:36:22.594Z,11.9
2022-10-10T14:41:22.871Z,9.7
2022-10-10T14:46:23.183Z,11.2
2022-10-10T14:51:34.102Z,9.6
2022-10-10T14:56:26.085Z,11.1
2022-10-10T15:01:29.930Z,9.3
2022-10-10T15:06:30.266Z,13.5
2022-10-10T15:11:30.689Z,12.6
2022-10-10T15:16:31.014Z,13.2
2022-10-10T15:21:31.436Z,10.4
2022-10-10T15:26:32.015Z,11.5
2022-10-10T15:31:32.396Z,13.2
2022-10-10T15:36:32.917Z,10.7
2022-10-10T15:41:33.573Z,13.7
2022-10-10T15:46:34.213Z,13.9
2022-10-10T15:51:34.559Z,16.4
2022-10-10T15:56:35.232Z,14
2022-10-10T16:01:35.641Z,18
2022-10-10T16:06:36.033Z,16.9
2022-10-10T16:11:36.520Z,19.7
2022-10-10T16:16:36.906Z,20.2
2022-10-10T16:21:37.259Z,27.6
2022-10-10T16:26:37.932Z,32.2
2022-10-10T16:31:38.276Z,34.8
2022-10-10T16:36:38.925Z,20.6
2022-10-10T16:41:48.285Z,33.1
2022-10-10T16:46:39.478Z,23.1
2022-10-10T16:51:42.588Z,27.1
2022-10-10T16:56:43.212Z,26.1
2022-10-10T17:01:43.807Z,28.2
2022-10-10T17:06:44.364Z,35.5
2022-10-10T17:11:48.082Z,32.5
2022-10-10T17:21:51.672Z,34.4
2022-10-10T17:26:52.239Z,32.4
2022-10-10T17:31:52.543Z,30
2022-10-10T17:36:53.088Z,50.1
2022-10-10T17:41:53.918Z,29.1
2022-10-10T17:46:54.573Z,35.4
2022-10-10T17:51:54.916Z,34.5
2022-10-10T17:56:55.594Z,37.8
2022-10-10T18:01:55.945Z,40
2022-10-10T18:06:56.304Z,50.3
2022-10-10T18:11:57.023Z,58
2022-10-10T18:16:57.483Z,53.3
2022-10-10T18:21:58.154Z,49.6
2022-10-10T18:26:59.963Z,65.5
2022-10-10T18:32:00.694Z,56.5
2022-10-10T18:37:01.253Z,38.2
2022-10-10T18:42:01.691Z,44.7
2022-10-10T18:47:03.230Z,46.6
2022-10-10T18:52:03.656Z,47.6
2022-10-10T18:57:04.328Z,82.1
2022-10-10T19:02:04.742Z,84.3
2022-10-10T19:07:05.236Z,55.7
2022-10-10T19:12:08.904Z,72.8
2022-10-10T19:17:09.269Z,61.7
2022-10-10T19:22:10.124Z,64.8
2022-10-10T19:27:11.113Z,73.1
2022-10-10T19:32:11.485Z,86.1
2022-10-10T19:37:11.974Z,68.3
2022-10-10T19:42:12.568Z,64.6
2022-10-10T19:47:12.910Z,72.9
2022-10-10T19:52:13.257Z,60
2022-10-10T19:57:13.885Z,55.9
2022-10-10T20:02:14.256Z,56.9
2022-10-10T20:07:14.637Z,57.4
2022-10-10T20:12:15.233Z,50.4
2022-10-10T20:17:15.596Z,50.7
2022-10-10T20:22:15.954Z,40.5
2022-10-10T20:27:16.398Z,43.1
2022-10-10T20:32:16.765Z,40.1
2022-10-10T20:37:17.286Z,43.7
2022-10-10T20:42:17.903Z,38.8
2022-10-10T20:47:18.279Z,38.7
2022-10-10T20:52:18.737Z,38.7
2022-10-10T20:57:19.292Z,37.1
2022-10-10T21:02:19.770Z,34.1
2022-10-10T21:07:20.179Z,38.4
2022-10-10T21:12:20.890Z,36.7
2022-10-10T21:17:21.263Z,39.7
2022-10-10T21:22:21.611Z,33.8
2022-10-10T21:27:22.037Z,36.6
2022-10-10T21:32:22.388Z,33.7
2022-10-10T21:37:22.848Z,35.2
2022-10-10T21:42:23.304Z,34.5
2022-10-10T21:47:23.710Z,36.7
2022-10-10T21:52:24.072Z,31.7
2022-10-10T21:57:24.464Z,28.9
2022-10-10T22:02:24.817Z,31.8
2022-10-10T22:07:25.145Z,30.4
2022-10-10T22:12:25.864Z,29.9
2022-10-10T22:17:26.373Z,29.5
2022-10-10T22:22:26.770Z,29.4
2022-10-10T22:27:27.198Z,27.4
2022-10-10T22:32:27.569Z,27.7
2022-10-10T22:37:27.984Z,26.7
2022-10-10T22:42:28.963Z,25.7
2022-10-10T22:47:29.305Z,29.1
2022-10-10T22:52:29.637Z,29.3
2022-10-10T22:57:30.662Z,25.8
2022-10-10T23:02:31.018Z,26.2
2022-10-10T23:07:31.406Z,22.2
2022-10-10T23:12:31.998Z,23.1
2022-10-10T23:17:32.388Z,26.7
2022-10-10T23:22:32.710Z,27.3
2022-10-10T23:27:33.378Z,26
2022-10-10T23:32:33.769Z,26.3
2022-10-10T23:37:34.425Z,21.7
2022-10-10T23:42:34.939Z,25.1
2022-10-10T23:47:35.313Z,25.2
2022-10-10T23:52:35.651Z,22.4
2022-10-10T23:57:36.413Z,27.5
